Terminal Aerodrome Forecast
Issued by NWS King Salmon, AK

Home | Current Version | Previous Version | Text Only | Print | Product List | Glossary On
Versions: 1 2 3 4 5 6 7 8 9 10 11 12 13 14 15 16 17 18 19 20 21 22 23 24 25 26 27 28 29 30 31 32 33
000
FTAK31 PANC 291258 AAA
TAFAKN
TAF AMD
PAKN 291258Z 2913/3012 18004KT 1/2SM FG SCT003 OVC006
      TEMPO 2913/2917 1/4SM FG BKN002 OVC006
     FM291900 VRB05KT P6SM BKN012
     FM300200 22008KT P6SM SCT025
     FM300900 13004KT P6SM VCFG FEW005 SCT008
     FM301100 13004KT 1SM BR BKN005=

USA.gov is the U.S. government's official web portal to all federal, state and local government web resources and services.